Time;durP1;ratioP1;P1;durP2;ratioP2;P2;SDS_P1;SDS_P2;PMS_P1;PMS_P2;Temp;Humidity;BMP_temperature;BMP_pressure;BME280_temperature;BME280_humidity;BME280_pressure;Samples;Min_cycle;Max_cycle;Signal;HPM_P1;HPM_P2
2023/05/15 00:01:05;;;;;;;23.70;11.00;;;11.60;99.90;;;;;;5090549;28;20628;-70
2023/05/15 00:03:30;;;;;;;23.30;11.15;;;11.60;99.90;;;;;;5092581;28;20046;-70
2023/05/15 00:05:56;;;;;;;24.08;12.20;;;11.50;99.90;;;;;;5093287;28;20518;-68
2023/05/15 00:08:28;;;;;;;22.55;11.55;;;11.50;99.90;;;;;;5093321;28;20154;-70
2023/05/15 00:10:53;;;;;;;26.23;12.90;;;11.50;99.90;;;;;;5093195;28;20036;-72
2023/05/15 00:13:19;;;;;;;23.42;12.20;;;11.40;99.90;;;;;;5091149;28;20499;-70
2023/05/15 00:15:47;;;;;;;25.17;11.95;;;11.40;99.90;;;;;;5093020;28;20111;-70
2023/05/15 00:18:13;;;;;;;33.72;13.13;;;11.30;99.90;;;;;;5092876;28;20048;-70
2023/05/15 00:20:39;;;;;;;24.17;12.23;;;11.30;99.90;;;;;;5096516;28;20055;-68
2023/05/15 00:23:04;;;;;;;29.65;12.57;;;11.30;99.90;;;;;;5099565;27;20036;-70
2023/05/15 00:25:33;;;;;;;29.55;13.20;;;11.20;99.90;;;;;;5097286;28;20130;-71
2023/05/15 00:27:58;;;;;;;28.40;12.93;;;11.20;99.90;;;;;;5094011;28;20031;-72
2023/05/15 00:30:24;;;;;;;28.45;12.50;;;11.20;99.90;;;;;;5097833;28;20149;-70
2023/05/15 00:32:50;;;;;;;26.27;12.77;;;11.10;99.90;;;;;;5098807;28;20031;-71
2023/05/15 00:35:15;;;;;;;23.00;12.02;;;11.10;99.90;;;;;;5086743;28;20027;-71
2023/05/15 00:37:44;;;;;;;27.88;12.70;;;11.10;99.90;;;;;;5091217;28;20107;-70
2023/05/15 00:40:21;;;;;;;26.77;13.25;;;11.00;99.90;;;;;;5097988;28;20036;-68
2023/05/15 00:42:47;;;;;;;25.80;12.35;;;11.00;99.90;;;;;;5097371;28;20581;-70
2023/05/15 00:45:16;;;;;;;26.40;13.68;;;11.00;99.90;;;;;;5092438;28;20020;-69
2023/05/15 00:47:43;;;;;;;39.10;14.02;;;10.90;99.90;;;;;;5097452;28;20036;-69
2023/05/15 00:50:09;;;;;;;32.25;13.82;;;10.90;99.90;;;;;;5098759;28;20155;-69
2023/05/15 00:52:38;;;;;;;29.70;13.90;;;10.80;99.90;;;;;;5094802;28;20097;-69
2023/05/15 00:55:05;;;;;;;26.85;12.75;;;10.80;99.90;;;;;;5087733;28;20032;-69
2023/05/15 00:57:31;;;;;;;31.60;13.85;;;10.80;99.90;;;;;;5096810;28;20032;-70
2023/05/15 00:59:57;;;;;;;31.10;14.18;;;10.80;99.90;;;;;;5101572;27;20036;-70
2023/05/15 01:02:23;;;;;;;32.03;13.57;;;10.80;99.90;;;;;;5096531;28;20031;-70
2023/05/15 01:04:49;;;;;;;25.48;12.13;;;10.70;99.90;;;;;;5099199;28;20051;-69
2023/05/15 01:07:15;;;;;;;34.45;14.77;;;10.70;99.90;;;;;;5099535;28;20039;-70
2023/05/15 01:09:44;;;;;;;30.65;12.77;;;10.70;99.90;;;;;;5095235;28;20040;-70
2023/05/15 01:12:21;;;;;;;25.63;13.17;;;10.70;99.90;;;;;;5097479;28;20403;-69
2023/05/15 01:14:59;;;;;;;29.17;12.73;;;10.70;99.90;;;;;;5100948;27;20111;-70
2023/05/15 01:17:31;;;;;;;32.42;14.73;;;10.70;99.90;;;;;;5094954;28;20129;-70
2023/05/15 01:19:57;;;;;;;31.70;14.20;;;10.60;99.90;;;;;;5093364;28;20062;-70
2023/05/15 01:22:51;;;;;;;27.80;13.70;;;10.60;99.90;;;;;;5096551;28;20035;-69
2023/05/15 01:25:32;;;;;;;29.88;13.02;;;10.60;99.90;;;;;;5092518;28;20036;-69
2023/05/15 01:28:08;;;;;;;33.30;13.80;;;10.60;99.90;;;;;;5096483;28;20491;-76
2023/05/15 01:30:37;;;;;;;29.83;13.80;;;10.60;99.90;;;;;;5091645;28;20024;-70
2023/05/15 01:33:22;;;;;;;34.80;14.40;;;10.50;99.90;;;;;;5092510;28;20024;-69
2023/05/15 01:36:13;;;;;;;33.10;13.20;;;10.50;99.90;;;;;;5087799;28;20035;-70
2023/05/15 01:39:04;;;;;;;32.13;13.60;;;10.50;99.90;;;;;;5094298;28;20036;-69
2023/05/15 01:41:38;;;;;;;;;;;10.50;99.90;;;;;;5093839;28;20035;-69
2023/05/15 01:44:10;;;;;;;36.55;14.65;;;10.40;99.90;;;;;;5093393;28;19916;-70
2023/05/15 01:46:44;;;;;;;31.85;13.07;;;10.40;99.90;;;;;;5093361;28;20031;-68
2023/05/15 01:49:17;;;;;;;30.27;13.30;;;10.40;99.90;;;;;;5092136;28;20075;-69
2023/05/15 01:51:49;;;;;;;28.15;13.77;;;10.40;99.90;;;;;;5091901;28;20075;-70
2023/05/15 01:54:28;;;;;;;32.10;14.45;;;10.40;99.90;;;;;;5094390;28;20032;-70
2023/05/15 01:56:56;;;;;;;36.53;14.25;;;10.40;99.90;;;;;;5091967;28;20032;-67
2023/05/15 01:59:25;;;;;;;34.72;14.57;;;10.40;99.90;;;;;;5095756;28;20057;-70
2023/05/15 02:02:03;;;;;;;32.70;13.75;;;10.40;99.90;;;;;;5096899;28;20074;-69
2023/05/15 02:04:29;;;;;;;36.13;14.13;;;10.50;99.90;;;;;;5093027;28;20114;-69
2023/05/15 02:06:56;;;;;;;30.67;13.63;;;10.50;99.90;;;;;;5100086;28;20491;-69
2023/05/15 02:09:27;;;;;;;34.67;12.98;;;10.60;99.90;;;;;;5094714;28;20065;-70
2023/05/15 02:11:54;;;;;;;27.58;12.10;;;10.60;99.90;;;;;;5098229;28;20027;-70
2023/05/15 02:14:29;;;;;;;29.20;12.98;;;10.60;99.90;;;;;;5096159;28;20035;-72
2023/05/15 02:16:57;;;;;;;30.00;12.40;;;10.60;99.90;;;;;;5097750;28;20092;-70
2023/05/15 02:19:32;;;;;;;28.00;11.52;;;10.60;99.90;;;;;;5092795;28;20034;-70
2023/05/15 02:21:58;;;;;;;28.23;11.52;;;10.60;99.90;;;;;;5088515;28;20088;-75
2023/05/15 02:24:24;;;;;;;31.63;12.13;;;10.70;99.90;;;;;;5097172;28;20079;-69
2023/05/15 02:27:15;;;;;;;30.25;12.65;;;10.70;99.90;;;;;;5094300;28;20036;-70
2023/05/15 02:29:58;;;;;;;26.52;10.65;;;10.70;99.90;;;;;;5093210;28;20035;-70
2023/05/15 02:32:52;;;;;;;33.60;12.75;;;10.70;99.90;;;;;;5095414;28;20032;-70
2023/05/15 02:35:31;;;;;;;26.45;11.93;;;10.70;99.90;;;;;;5095175;28;21444;-69
2023/05/15 02:38:12;;;;;;;24.98;11.55;;;10.70;99.90;;;;;;5094125;28;20042;-69
2023/05/15 02:40:39;;;;;;;26.45;11.40;;;10.60;99.90;;;;;;5094930;28;20701;-69
2023/05/15 02:43:05;;;;;;;28.25;11.73;;;10.60;99.90;;;;;;5093660;28;20107;-69
2023/05/15 02:45:32;;;;;;;25.73;10.10;;;10.70;99.90;;;;;;5097188;28;20035;-70
2023/05/15 02:47:59;;;;;;;28.65;9.93;;;10.60;99.90;;;;;;5093054;28;20086;-74
2023/05/15 02:50:25;;;;;;;24.30;10.68;;;10.60;99.90;;;;;;5085668;28;20063;-71
2023/05/15 02:52:59;;;;;;;22.17;10.82;;;10.60;99.90;;;;;;5096304;28;20487;-70
2023/05/15 02:55:25;;;;;;;20.98;9.82;;;10.70;99.90;;;;;;5091428;27;20078;-70
2023/05/15 02:57:50;;;;;;;20.55;9.45;;;10.60;99.90;;;;;;5096286;28;20027;-70
2023/05/15 03:00:17;;;;;;;19.10;9.48;;;10.60;99.90;;;;;;5093764;28;20031;-70
2023/05/15 03:02:45;;;;;;;22.13;9.50;;;10.50;99.90;;;;;;5095606;28;20392;-68
2023/05/15 03:05:14;;;;;;;14.20;8.52;;;10.50;99.90;;;;;;5096009;28;20030;-70
2023/05/15 03:07:41;;;;;;;13.57;7.45;;;10.60;99.90;;;;;;5095510;28;20090;-70
2023/05/15 03:10:07;;;;;;;13.15;7.57;;;10.50;99.90;;;;;;5092439;28;20032;-69
2023/05/15 03:12:33;;;;;;;20.00;7.50;;;10.50;99.90;;;;;;5097845;28;20040;-69
2023/05/15 03:14:58;;;;;;;17.85;7.47;;;10.60;99.90;;;;;;5094875;28;20101;-71
2023/05/15 03:17:24;;;;;;;13.88;7.10;;;10.50;99.90;;;;;;5098992;28;20032;-70
2023/05/15 03:19:58;;;;;;;15.95;7.80;;;10.50;99.90;;;;;;5089965;28;20047;-70
2023/05/15 03:22:24;;;;;;;15.43;8.02;;;10.50;99.90;;;;;;5082007;28;20044;-70
2023/05/15 03:24:52;;;;;;;18.67;7.15;;;10.50;99.90;;;;;;5085147;28;20021;-70
2023/05/15 03:27:21;;;;;;;12.95;5.85;;;10.50;99.90;;;;;;5084182;28;20044;-70
2023/05/15 03:29:49;;;;;;;15.40;7.55;;;10.50;99.90;;;;;;5092995;28;20134;-69
2023/05/15 03:32:18;;;;;;;12.13;6.68;;;10.40;99.90;;;;;;5093396;28;20115;-69
2023/05/15 03:34:46;;;;;;;16.65;7.65;;;10.40;99.90;;;;;;5094556;28;20063;-70
2023/05/15 03:37:15;;;;;;;13.10;6.82;;;10.50;99.90;;;;;;5090747;28;20499;-70
2023/05/15 03:39:47;;;;;;;14.23;7.43;;;10.50;99.90;;;;;;5094511;28;20515;-70
2023/05/15 03:42:12;;;;;;;13.93;7.18;;;10.50;99.90;;;;;;5095556;28;20028;-69
2023/05/15 03:44:38;;;;;;;15.45;7.82;;;10.50;99.90;;;;;;5090807;28;20510;-69
2023/05/15 03:47:04;;;;;;;17.58;7.88;;;10.50;99.90;;;;;;5089430;27;20492;-72
2023/05/15 03:49:29;;;;;;;17.30;7.40;;;10.50;99.90;;;;;;5099810;28;20051;-68
2023/05/15 03:51:58;;;;;;;18.35;7.40;;;10.50;99.90;;;;;;5089275;28;20035;-70
2023/05/15 03:54:24;;;;;;;17.70;7.68;;;10.50;99.90;;;;;;5085810;28;20032;-70
2023/05/15 03:56:49;;;;;;;12.65;6.57;;;10.60;99.90;;;;;;5091736;28;20139;-69
2023/05/15 03:59:18;;;;;;;16.73;8.23;;;10.60;99.90;;;;;;5093580;27;20118;-70
2023/05/15 04:01:43;;;;;;;16.27;7.70;;;10.60;99.90;;;;;;5089123;28;20028;-70
2023/05/15 04:04:12;;;;;;;12.98;6.97;;;10.60;99.90;;;;;;5094292;28;20407;-69
2023/05/15 04:06:40;;;;;;;17.17;8.35;;;10.60;99.90;;;;;;5090529;28;20048;-70
2023/05/15 04:09:06;;;;;;;17.52;7.75;;;10.60;99.90;;;;;;5090566;28;20085;-69
2023/05/15 04:11:33;;;;;;;14.57;7.32;;;10.60;99.90;;;;;;5091581;28;20036;-70
2023/05/15 04:14:02;;;;;;;15.02;6.57;;;10.60;99.90;;;;;;5095379;28;20403;-70
2023/05/15 04:16:27;;;;;;;11.43;6.68;;;10.60;99.90;;;;;;5096666;28;20036;-69
2023/05/15 04:18:56;;;;;;;13.90;6.57;;;10.60;99.90;;;;;;5099675;28;20086;-70
2023/05/15 04:21:21;;;;;;;12.30;7.07;;;10.70;99.90;;;;;;5090013;28;20032;-69
2023/05/15 04:23:47;;;;;;;13.93;6.82;;;10.80;99.90;;;;;;5096471;28;20530;-70
2023/05/15 04:26:13;;;;;;;15.35;7.35;;;10.70;99.90;;;;;;5090494;28;20607;-70
2023/05/15 04:28:38;;;;;;;13.15;7.60;;;10.80;99.90;;;;;;5095979;28;20044;-70
2023/05/15 04:31:04;;;;;;;16.73;8.35;;;10.80;99.90;;;;;;5097018;28;20079;-69
2023/05/15 04:33:30;;;;;;;16.75;9.25;;;10.80;99.90;;;;;;5099129;28;20028;-69
2023/05/15 04:35:56;;;;;;;22.70;11.52;;;10.90;99.90;;;;;;5092040;28;20657;-69
2023/05/15 04:38:28;;;;;;;21.80;11.40;;;10.90;99.90;;;;;;5093742;28;20043;-71
2023/05/15 04:40:59;;;;;;;22.70;10.82;;;10.90;99.90;;;;;;5094397;28;20123;-70
2023/05/15 04:43:25;;;;;;;19.73;10.43;;;10.90;99.90;;;;;;5093243;28;20035;-69
2023/05/15 04:45:50;;;;;;;20.38;10.60;;;10.90;99.90;;;;;;5096586;28;20032;-70
2023/05/15 04:48:18;;;;;;;20.10;10.07;;;10.90;99.90;;;;;;5095858;28;20068;-69
2023/05/15 04:50:44;;;;;;;22.52;9.63;;;10.90;99.90;;;;;;5098385;27;20024;-68
2023/05/15 04:53:09;;;;;;;15.30;8.52;;;10.90;99.90;;;;;;5096939;28;20035;-70
2023/05/15 04:55:35;;;;;;;18.55;9.05;;;11.00;99.90;;;;;;5096326;28;20027;-71
2023/05/15 04:58:00;;;;;;;17.58;8.80;;;11.00;99.90;;;;;;5093935;28;20115;-69
2023/05/15 05:00:27;;;;;;;18.42;8.52;;;11.00;99.90;;;;;;5087741;28;20039;-68
2023/05/15 05:02:58;;;;;;;17.55;10.38;;;11.00;99.90;;;;;;5087211;28;20031;-71
2023/05/15 05:05:24;;;;;;;19.52;10.50;;;11.10;99.90;;;;;;5091158;28;20097;-67
2023/05/15 05:07:50;;;;;;;21.98;9.88;;;11.10;99.90;;;;;;5087072;28;20043;-69
2023/05/15 05:10:22;;;;;;;20.00;10.43;;;11.20;99.90;;;;;;5085454;28;20417;-69
2023/05/15 05:12:47;;;;;;;17.20;9.48;;;11.20;99.90;;;;;;5087058;28;20540;-70
2023/05/15 05:15:13;;;;;;;18.45;9.48;;;11.20;99.90;;;;;;5091336;28;20111;-71
2023/05/15 05:17:39;;;;;;;16.73;10.00;;;11.20;99.90;;;;;;5090555;28;20388;-67
2023/05/15 05:20:09;;;;;;;18.13;9.40;;;11.10;99.90;;;;;;5089830;28;20379;-70
2023/05/15 05:22:35;;;;;;;26.10;9.60;;;11.20;99.90;;;;;;5090892;28;20070;-67
2023/05/15 05:25:01;;;;;;;18.13;9.57;;;11.10;99.90;;;;;;5089251;28;20097;-69
2023/05/15 05:27:26;;;;;;;16.98;9.27;;;11.20;99.90;;;;;;5089328;28;20085;-69
2023/05/15 05:29:53;;;;;;;21.70;9.50;;;11.20;99.90;;;;;;5093351;28;20098;-69
2023/05/15 05:32:21;;;;;;;17.65;9.40;;;11.20;99.90;;;;;;5091123;28;22545;-70
2023/05/15 05:34:46;;;;;;;17.65;10.25;;;11.30;99.90;;;;;;5086260;28;20038;-70
2023/05/15 05:37:12;;;;;;;20.63;8.80;;;11.40;99.90;;;;;;5088973;28;20054;-70
2023/05/15 05:39:40;;;;;;;14.48;8.80;;;11.50;99.90;;;;;;5092122;27;20085;-68
2023/05/15 05:42:06;;;;;;;17.08;9.13;;;11.60;99.90;;;;;;5088487;27;20032;-69
2023/05/15 05:44:33;;;;;;;15.35;7.85;;;11.70;99.90;;;;;;5086591;28;20040;-70
2023/05/15 05:46:59;;;;;;;13.90;8.07;;;11.80;99.90;;;;;;5089940;28;20089;-73
2023/05/15 05:49:24;;;;;;;13.27;7.65;;;11.90;99.90;;;;;;5089731;28;20524;-68
2023/05/15 05:51:50;;;;;;;12.45;7.47;;;12.00;99.90;;;;;;5087806;28;20048;-70
2023/05/15 05:54:17;;;;;;;14.77;8.38;;;12.20;99.90;;;;;;5090971;28;20652;-70
2023/05/15 05:56:42;;;;;;;14.43;7.38;;;12.20;99.90;;;;;;5091501;28;20023;-70
2023/05/15 05:59:08;;;;;;;14.65;7.20;;;12.30;99.90;;;;;;5086523;28;20499;-70
2023/05/15 06:01:37;;;;;;;11.55;7.15;;;12.30;99.90;;;;;;5088487;28;20505;-70
2023/05/15 06:04:03;;;;;;;14.43;7.30;;;12.40;99.90;;;;;;5089345;28;20036;-69
2023/05/15 06:06:28;;;;;;;12.27;7.15;;;12.40;99.90;;;;;;5089616;28;20048;-69
2023/05/15 06:08:57;;;;;;;13.43;7.05;;;12.50;99.90;;;;;;5088762;28;20560;-70
2023/05/15 06:11:26;;;;;;;14.10;7.57;;;12.70;99.90;;;;;;5090743;28;20543;-70
2023/05/15 06:13:51;;;;;;;12.55;7.13;;;13.00;99.90;;;;;;5087517;28;20028;-70
2023/05/15 06:16:23;;;;;;;14.57;6.70;;;13.30;99.90;;;;;;5087107;28;20648;-70
2023/05/15 06:18:49;;;;;;;17.15;7.47;;;13.60;99.90;;;;;;5091388;28;20073;-70
2023/05/15 06:21:14;;;;;;;13.25;8.40;;;13.70;99.90;;;;;;5089911;28;20024;-69
2023/05/15 06:23:40;;;;;;;17.75;8.30;;;13.70;99.90;;;;;;5089478;28;20031;-68
2023/05/15 06:26:06;;;;;;;13.95;7.60;;;13.40;99.90;;;;;;5090714;28;20123;-70
2023/05/15 06:28:31;;;;;;;13.73;8.48;;;13.20;99.90;;;;;;5091136;28;20031;-69
2023/05/15 06:31:00;;;;;;;16.67;8.38;;;13.20;99.90;;;;;;5085080;28;20032;-69
2023/05/15 06:33:28;;;;;;;16.77;8.23;;;13.20;99.90;;;;;;5088141;28;20043;-69
2023/05/15 06:35:57;;;;;;;16.17;8.50;;;13.00;99.90;;;;;;5085645;28;20502;-70
2023/05/15 06:38:25;;;;;;;15.70;8.50;;;13.10;99.90;;;;;;5088705;28;20032;-69
2023/05/15 06:40:51;;;;;;;13.98;8.63;;;13.10;99.90;;;;;;5084188;28;20535;-69
2023/05/15 06:43:22;;;;;;;16.63;8.05;;;13.10;99.90;;;;;;5089439;28;20069;-69
2023/05/15 06:45:48;;;;;;;14.32;7.95;;;13.20;99.90;;;;;;5087637;28;20510;-69
2023/05/15 06:48:17;;;;;;;13.93;7.85;;;13.30;99.90;;;;;;5086219;28;20028;-68
2023/05/15 06:50:42;;;;;;;16.88;7.45;;;13.60;99.90;;;;;;5084898;28;20020;-69
2023/05/15 06:53:08;;;;;;;12.40;7.95;;;13.70;99.90;;;;;;5086611;28;20035;-68
2023/05/15 06:55:39;;;;;;;12.88;7.28;;;13.90;99.90;;;;;;5088302;28;20035;-69
2023/05/15 06:58:05;;;;;;;12.45;6.88;;;14.00;99.90;;;;;;5084334;28;20036;-68
2023/05/15 07:00:30;;;;;;;12.57;7.32;;;14.20;99.90;;;;;;5090955;28;20028;-70
2023/05/15 07:02:56;;;;;;;12.88;6.72;;;14.10;99.90;;;;;;5090042;28;20484;-69
2023/05/15 07:05:25;;;;;;;15.38;6.80;;;14.20;99.90;;;;;;5086757;28;20154;-70
2023/05/15 07:07:50;;;;;;;12.20;6.88;;;14.30;99.90;;;;;;5090214;28;20046;-69
2023/05/15 07:10:16;;;;;;;13.35;6.35;;;14.30;99.90;;;;;;5090758;28;20142;-68
2023/05/15 07:12:45;;;;;;;13.68;7.43;;;14.40;99.90;;;;;;5090770;28;20036;-70
2023/05/15 07:15:11;;;;;;;13.20;6.18;;;14.30;99.90;;;;;;5085277;28;20036;-70
2023/05/15 07:17:45;;;;;;;15.80;6.68;;;14.30;99.90;;;;;;5094601;28;20036;-70
2023/05/15 07:20:13;;;;;;;11.07;5.35;;;14.30;99.90;;;;;;5087990;28;20028;-71
2023/05/15 07:22:39;;;;;;;14.45;6.53;;;14.30;99.90;;;;;;5084458;28;20126;-70
2023/05/15 07:25:05;;;;;;;10.82;5.60;;;14.20;99.90;;;;;;5087650;28;20131;-69
2023/05/15 07:27:39;;;;;;;13.77;6.47;;;14.10;99.90;;;;;;5091899;28;20443;-70
2023/05/15 07:30:06;;;;;;;15.88;6.00;;;14.10;99.90;;;;;;5088026;28;20144;-70
2023/05/15 07:32:37;;;;;;;11.30;6.93;;;14.10;99.90;;;;;;5083606;28;20039;-70
2023/05/15 07:35:04;;;;;;;10.40;5.30;;;14.10;99.90;;;;;;5088951;28;20043;-69
2023/05/15 07:37:30;;;;;;;8.75;5.35;;;14.10;99.90;;;;;;5089245;28;20097;-69
2023/05/15 07:39:56;;;;;;;11.68;5.72;;;14.10;99.90;;;;;;5083035;28;20036;-70
2023/05/15 07:42:21;;;;;;;12.02;5.95;;;14.10;99.90;;;;;;5085487;28;20438;-72
2023/05/15 07:44:47;;;;;;;13.48;6.20;;;14.30;99.90;;;;;;5083943;28;20036;-69
2023/05/15 07:47:13;;;;;;;10.52;6.30;;;14.30;99.90;;;;;;5083061;28;20044;-71
2023/05/15 07:49:41;;;;;;;13.20;6.45;;;14.30;99.90;;;;;;5086819;28;20557;-68
2023/05/15 07:52:06;;;;;;;11.48;5.68;;;14.50;99.90;;;;;;5086029;28;20032;-69
2023/05/15 07:54:32;;;;;;;10.38;5.28;;;14.50;99.90;;;;;;5086431;28;20034;-69
2023/05/15 07:56:58;;;;;;;12.35;5.18;;;14.70;99.90;;;;;;5086020;28;20036;-68
2023/05/15 07:59:26;;;;;;;8.15;5.05;;;14.80;99.90;;;;;;5087970;28;20044;-67
2023/05/15 08:01:58;;;;;;;13.95;5.47;;;14.90;99.90;;;;;;5085834;28;20065;-70
2023/05/15 08:04:23;;;;;;;7.95;4.82;;;15.10;99.90;;;;;;5083592;28;20123;-71
2023/05/15 08:06:49;;;;;;;8.70;4.97;;;15.10;99.90;;;;;;5086151;28;20040;-70
2023/05/15 08:09:14;;;;;;;9.18;5.55;;;15.20;99.90;;;;;;5085468;28;20252;-70
2023/05/15 08:11:40;;;;;;;14.52;6.30;;;15.20;99.90;;;;;;5085841;28;20368;-68
2023/05/15 08:14:05;;;;;;;11.35;5.20;;;15.10;99.90;;;;;;5082948;28;20036;-70
2023/05/15 08:16:31;;;;;;;10.60;5.63;;;15.10;99.90;;;;;;5097769;28;20032;-70
2023/05/15 08:18:59;;;;;;;11.40;5.60;;;15.00;99.90;;;;;;5089216;28;20617;-68
2023/05/15 08:21:26;;;;;;;8.63;5.40;;;14.90;99.90;;;;;;5091001;28;20036;-69
2023/05/15 08:23:54;;;;;;;8.35;4.95;;;14.90;99.90;;;;;;5093031;28;20511;-68
2023/05/15 08:26:20;;;;;;;9.63;4.97;;;14.90;99.90;;;;;;5091781;28;20671;-69
2023/05/15 08:28:49;;;;;;;11.30;5.45;;;14.90;99.90;;;;;;5089764;28;20051;-68
2023/05/15 08:31:20;;;;;;;10.93;5.68;;;14.90;99.90;;;;;;5088650;28;20028;-70
2023/05/15 08:33:46;;;;;;;11.00;5.57;;;14.90;99.90;;;;;;5093387;28;20028;-69
2023/05/15 08:36:12;;;;;;;10.02;5.50;;;14.90;99.90;;;;;;5088395;28;20039;-69
2023/05/15 08:38:41;;;;;;;10.02;5.13;;;14.90;99.90;;;;;;5090093;28;20468;-70
2023/05/15 08:41:13;;;;;;;12.10;6.45;;;14.80;99.90;;;;;;5088889;28;20111;-70
2023/05/15 08:43:56;;;;;;;10.00;5.63;;;14.60;99.90;;;;;;5089841;28;20051;-70
2023/05/15 08:46:23;;;;;;;12.88;6.68;;;14.50;99.90;;;;;;5084867;28;20048;-69
2023/05/15 08:48:53;;;;;;;12.77;7.05;;;14.50;99.90;;;;;;5088096;28;20711;-69
2023/05/15 08:51:23;;;;;;;13.85;5.88;;;14.40;99.90;;;;;;5088491;28;24271;-70
2023/05/15 08:53:49;;;;;;;11.07;6.17;;;14.30;99.90;;;;;;5087367;28;20131;-70
2023/05/15 08:56:18;;;;;;;17.73;7.30;;;14.20;99.90;;;;;;5086205;28;20278;-68
2023/05/15 08:58:44;;;;;;;13.57;6.55;;;14.20;99.90;;;;;;5090207;28;20068;-71
2023/05/15 09:01:12;;;;;;;12.27;6.40;;;14.20;99.90;;;;;;5081942;28;20020;-69
2023/05/15 09:03:41;;;;;;;15.27;7.72;;;14.20;99.90;;;;;;5087384;28;20059;-70
2023/05/15 09:06:08;;;;;;;14.38;7.20;;;14.20;99.90;;;;;;5085794;28;20091;-68
2023/05/15 09:08:35;;;;;;;15.35;7.50;;;14.20;99.90;;;;;;5088798;28;20045;-70
2023/05/15 09:11:03;;;;;;;12.18;6.30;;;14.10;99.90;;;;;;5086862;28;20034;-72
2023/05/15 09:13:31;;;;;;;13.90;7.70;;;14.00;99.90;;;;;;5088325;28;20448;-70
2023/05/15 09:15:57;;;;;;;16.40;7.50;;;14.00;99.90;;;;;;5091484;28;20035;-70
2023/05/15 09:18:23;;;;;;;16.67;8.15;;;14.00;99.90;;;;;;5091003;28;20396;-68
2023/05/15 09:20:50;;;;;;;19.73;8.63;;;13.90;99.90;;;;;;5086704;28;20085;-72
2023/05/15 09:23:26;;;;;;;13.65;7.28;;;13.90;99.90;;;;;;5088937;28;20086;-68
2023/05/15 09:25:57;;;;;;;15.07;7.10;;;14.00;99.90;;;;;;5091714;28;20032;-70
2023/05/15 09:28:31;;;;;;;14.93;7.93;;;13.90;99.90;;;;;;5089416;28;20040;-69
2023/05/15 09:31:04;;;;;;;15.88;8.30;;;13.90;99.90;;;;;;5087198;28;20856;-70
2023/05/15 09:33:41;;;;;;;17.40;8.13;;;13.80;99.90;;;;;;5093231;28;20388;-69
2023/05/15 09:36:08;;;;;;;16.83;8.32;;;13.90;99.90;;;;;;5087551;28;20384;-70
2023/05/15 09:38:39;;;;;;;19.63;9.27;;;13.80;99.90;;;;;;5089375;28;20089;-69
2023/05/15 09:41:07;;;;;;;23.25;8.77;;;13.90;99.90;;;;;;5086153;28;20210;-70
2023/05/15 09:43:39;;;;;;;20.67;10.00;;;13.90;99.90;;;;;;5089488;28;20031;-70
2023/05/15 09:46:07;;;;;;;22.08;9.80;;;13.90;99.90;;;;;;5086343;28;20384;-69
2023/05/15 09:48:34;;;;;;;27.00;9.57;;;13.90;99.90;;;;;;5087055;28;20036;-70
2023/05/15 09:51:01;;;;;;;22.77;9.68;;;13.90;99.90;;;;;;5093032;28;20034;-72
2023/05/15 09:53:28;;;;;;;23.95;10.63;;;13.90;99.90;;;;;;5091842;28;20028;-70
2023/05/15 09:55:53;;;;;;;26.00;11.57;;;13.90;99.90;;;;;;5088443;28;20452;-70
2023/05/15 09:58:19;;;;;;;24.83;11.55;;;14.00;99.90;;;;;;5089650;28;20047;-70
2023/05/15 10:00:48;;;;;;;21.75;10.40;;;14.00;99.90;;;;;;5092070;28;20032;-70
2023/05/15 10:03:13;;;;;;;26.23;12.90;;;14.10;99.90;;;;;;5086893;28;20036;-70
2023/05/15 10:05:39;;;;;;;26.45;11.93;;;14.10;99.90;;;;;;5088035;28;20499;-70
2023/05/15 10:08:05;;;;;;;26.52;12.07;;;14.10;99.90;;;;;;5092953;28;20076;-70
2023/05/15 10:10:31;;;;;;;24.75;12.57;;;14.00;99.90;;;;;;5089841;28;20036;-70
2023/05/15 10:13:05;;;;;;;27.25;13.63;;;14.00;99.90;;;;;;5086337;28;20503;-70
2023/05/15 10:15:32;;;;;;;28.63;13.77;;;14.10;99.90;;;;;;5085593;28;20134;-69
2023/05/15 10:17:58;;;;;;;27.48;12.75;;;14.10;99.90;;;;;;5090721;28;20032;-70
2023/05/15 10:20:27;;;;;;;29.13;13.90;;;14.10;99.90;;;;;;5088973;28;20038;-70
2023/05/15 10:22:55;;;;;;;31.33;14.90;;;14.10;99.90;;;;;;5092360;28;20539;-70
2023/05/15 10:25:49;;;;;;;29.90;13.23;;;14.10;99.90;;;;;;5088299;28;20084;-69
2023/05/15 10:28:16;;;;;;;32.08;14.73;;;14.00;99.90;;;;;;5090852;28;20574;-70
2023/05/15 10:30:45;;;;;;;33.67;15.32;;;14.00;99.90;;;;;;5084710;28;20032;-70
2023/05/15 10:33:14;;;;;;;33.35;16.17;;;13.90;99.90;;;;;;5089905;28;20499;-69
2023/05/15 10:35:41;;;;;;;32.42;15.38;;;14.00;99.90;;;;;;5092931;28;20084;-69
2023/05/15 10:38:08;;;;;;;29.10;14.38;;;14.00;99.90;;;;;;5086055;28;20108;-70
2023/05/15 10:40:37;;;;;;;31.75;15.45;;;14.00;99.90;;;;;;5086587;28;20028;-69
2023/05/15 10:43:04;;;;;;;32.08;15.73;;;14.00;99.90;;;;;;5091738;28;20071;-70
2023/05/15 10:45:34;;;;;;;30.80;15.38;;;14.10;99.90;;;;;;5086374;28;20081;-70
2023/05/15 10:48:01;;;;;;;27.77;13.35;;;14.20;99.90;;;;;;5081851;28;20042;-72
2023/05/15 10:50:27;;;;;;;30.08;14.48;;;14.30;99.90;;;;;;5084952;28;20130;-70
2023/05/15 10:52:54;;;;;;;28.63;13.82;;;14.30;99.90;;;;;;5079598;28;20070;-69
2023/05/15 10:55:22;;;;;;;26.02;12.60;;;14.50;99.90;;;;;;5084406;28;20072;-69
2023/05/15 10:57:48;;;;;;;25.13;12.57;;;14.60;99.90;;;;;;5086628;28;20024;-70
2023/05/15 11:00:22;;;;;;;26.05;11.73;;;14.70;99.90;;;;;;5088424;28;20028;-69
2023/05/15 11:02:49;;;;;;;22.83;11.65;;;14.80;99.90;;;;;;5088138;28;20028;-70
2023/05/15 11:05:15;;;;;;;24.25;12.93;;;14.80;99.90;;;;;;5085027;28;20068;-69
2023/05/15 11:07:40;;;;;;;25.10;12.10;;;14.90;99.90;;;;;;5090281;28;20106;-72
2023/05/15 11:10:29;;;;;;;22.13;11.70;;;14.90;99.90;;;;;;5084645;28;20051;-69
2023/05/15 11:12:59;;;;;;;18.63;9.38;;;15.10;99.90;;;;;;5082178;28;20118;-68
2023/05/15 11:15:25;;;;;;;17.60;9.00;;;15.30;99.90;;;;;;5114508;27;20044;-71
2023/05/15 11:18:04;;;;;;;19.67;9.23;;;15.60;99.90;;;;;;5092786;28;20502;-70
2023/05/15 11:20:41;;;;;;;16.53;8.97;;;15.80;99.90;;;;;;5078185;28;20036;-69
2023/05/15 11:23:07;;;;;;;17.50;9.52;;;16.10;99.90;;;;;;5085966;28;20174;-69
2023/05/15 11:25:34;;;;;;;15.45;8.25;;;16.20;99.90;;;;;;5086202;28;20047;-69
2023/05/15 11:28:02;;;;;;;15.30;8.18;;;16.50;99.90;;;;;;5084080;28;20590;-75
2023/05/15 11:30:42;;;;;;;11.65;7.10;;;16.60;99.90;;;;;;5087680;28;20048;-70
2023/05/15 11:33:15;;;;;;;12.35;7.05;;;16.60;99.90;;;;;;5085990;28;20031;-71
2023/05/15 11:35:46;;;;;;;14.18;5.75;;;16.70;99.90;;;;;;5086793;28;20544;-69
2023/05/15 11:38:13;;;;;;;11.00;5.78;;;17.00;99.90;;;;;;5089186;28;20143;-69
2023/05/15 11:40:51;;;;;;;12.80;6.07;;;17.00;99.90;;;;;;5088982;28;20594;-70
2023/05/15 11:43:19;;;;;;;13.32;6.68;;;17.00;99.90;;;;;;5085046;28;20036;-70
2023/05/15 11:45:54;;;;;;;9.35;5.47;;;16.70;99.90;;;;;;5088973;28;20033;-71
2023/05/15 11:48:21;;;;;;;7.75;4.85;;;16.60;99.90;;;;;;5082965;28;20044;-70
2023/05/15 11:50:47;;;;;;;9.30;4.75;;;16.70;99.90;;;;;;5086074;28;20035;-70
2023/05/15 11:53:14;;;;;;;8.75;4.82;;;16.80;99.90;;;;;;5089898;28;20028;-70
2023/05/15 11:55:43;;;;;;;11.38;4.88;;;16.80;99.90;;;;;;5092459;28;20036;-71
2023/05/15 11:58:13;;;;;;;9.07;5.07;;;16.90;99.90;;;;;;5091585;28;20032;-71
2023/05/15 12:00:40;;;;;;;7.90;4.78;;;17.10;99.90;;;;;;5087823;28;20047;-70
2023/05/15 12:03:10;;;;;;;11.00;4.25;;;17.30;99.90;;;;;;5087080;28;20119;-71
2023/05/15 12:05:35;;;;;;;7.67;3.80;;;17.40;99.90;;;;;;5091758;28;20040;-68
2023/05/15 12:08:01;;;;;;;7.88;3.30;;;17.50;99.90;;;;;;5090882;28;20286;-69
2023/05/15 12:10:28;;;;;;;8.65;2.92;;;17.50;99.90;;;;;;5088593;28;20580;-70
2023/05/15 12:12:54;;;;;;;6.30;2.70;;;17.20;99.90;;;;;;5089958;28;20034;-72
2023/05/15 12:15:19;;;;;;;4.20;2.47;;;17.00;99.90;;;;;;5089140;28;20213;-70
2023/05/15 12:17:45;;;;;;;4.10;2.20;;;16.90;99.90;;;;;;5089430;28;20040;-69
2023/05/15 12:20:17;;;;;;;6.63;2.85;;;17.00;99.90;;;;;;5089086;28;20112;-70
2023/05/15 12:22:43;;;;;;;5.70;1.98;;;17.20;99.90;;;;;;5093398;28;20028;-69
2023/05/15 12:25:10;;;;;;;5.65;2.53;;;17.20;99.90;;;;;;5085789;28;20078;-70
2023/05/15 12:27:38;;;;;;;5.47;2.40;;;17.20;99.90;;;;;;5092310;28;20079;-69
2023/05/15 12:30:05;;;;;;;4.85;2.38;;;17.00;99.90;;;;;;5092038;28;20063;-70
2023/05/15 12:32:32;;;;;;;7.07;2.75;;;16.70;99.90;;;;;;5088163;28;20040;-70
2023/05/15 12:34:59;;;;;;;7.00;3.35;;;16.40;99.90;;;;;;5089249;28;20028;-69
2023/05/15 12:37:25;;;;;;;7.15;3.50;;;16.10;99.90;;;;;;5088790;28;20487;-69
2023/05/15 12:39:52;;;;;;;8.60;3.25;;;16.10;99.90;;;;;;5088949;28;20027;-69
2023/05/15 12:42:17;;;;;;;9.13;3.78;;;16.10;99.90;;;;;;5087388;28;20042;-70